Mitsukawa Maru — JD2495 — position and weather

sailwx.info

Track history (hours):
 
Tides and Currents Weather Stations Pressure Air Temp Water Temp Dewpoint Dewpoint Depression Visibility Wind Speed Wind Dir Waves Ship Positions

Mitsukawa Maru

Last reported at 2014-Jul-25 09:10 UTC. Time now 2014-Jul-25 11:28 UTC.
Position N 33°59' E 132°44'.

Length 105 m; draft 6.7 m.

Type: Cargo ship. MMSI: 431000326.

Date/timePositionNaut miles runAvg speedWind from/ knotsBaromVisibWave heightAir tempDewpointWater temp
2014-Jul-25 09:10N 33°59' E 132°44'25 1.8
2014-Jul-24 19:29N 33°42' E 132°23'1513.9
2014-Jul-24 18:26N 33°53' E 132°35'12 0.5
2014-Jul-23 19:32N 34°01' E 132°46'  
2014-Jul-16 23:29N 34°51' E 139°15'1212.6
2014-Jul-16 22:33N 34°58' E 139°26'1313.2
2014-Jul-16 21:33N 35°06' E 139°39'1211.8
2014-Jul-16 20:33N 35°17' E 139°45'1110.8
2014-Jul-16 19:33N 35°27' E 139°47'1413.8
2014-Jul-16 18:33N 35°35' E 140°02'4 3.8
2014-Jul-16 17:25N 35°34' E 140°07'0 0.0
2014-Jul-16 16:31N 35°34' E 140°07'0 0.0
2014-Jul-16 15:31N 35°34' E 140°07'0 0.0
2014-Jul-16 14:25N 35°34' E 140°07'0 0.0
2014-Jul-16 13:28N 35°34' E 140°07'0 0.0
2014-Jul-16 12:28N 35°34' E 140°07'0 0.0
2014-Jul-16 11:28N 35°34' E 140°07'0 0.0
2014-Jul-16 10:31N 35°34' E 140°07'0 0.0
2014-Jul-16 09:22N 35°34' E 140°07'0 0.0
2014-Jul-16 08:28N 35°34' E 140°07'0 0.0
2014-Jul-16 07:28N 35°34' E 140°07'0 0.0
2014-Jul-16 06:25N 35°34' E 140°07'0 0.0
2014-Jul-16 05:28N 35°34' E 140°07'0 0.0
2014-Jul-16 04:28N 35°34' E 140°07'0 0.0
2014-Jul-16 03:31N 35°34' E 140°07'0 0.0
2014-Jul-16 02:16N 35°34' E 140°07'0 0.0
2014-Jul-16 01:32N 35°34' E 140°07'4 4.3
2014-Jul-16 00:33N 35°34' E 140°02'2 2.0
2014-Jul-15 23:33N 35°34' E 139°59'6 5.6
2014-Jul-15 22:33N 35°30' E 139°54'1211.9
2014-Jul-15 21:33N 35°21' E 139°45'1111.5
2014-Jul-15 20:33N 35°10' E 139°47'1211.7
2014-Jul-15 19:33N 35°01' E 139°38'1313.1
2014-Jul-15 18:33N 34°53' E 139°25'  
Track history (hours):
 
Tides and Currents Weather Stations Pressure Air Temp Water Temp Dewpoint Dewpoint Depression Visibility Wind Speed Wind Dir Waves Ship Positions

Mitsukawa Maru

Last reported at 2014-Jul-25 09:10 UTC. Time now 2014-Jul-25 11:28 UTC.
Position N 33°59' E 132°44'.

Length 105 m; draft 6.7 m.

Type: Cargo ship. MMSI: 431000326.

Date/timePositionNaut miles runAvg speedWind from/ knotsBaromVisibWave heightAir tempDewpointWater temp
2014-Jul-25 09:10N 33°59' E 132°44'25 1.8
2014-Jul-24 19:29N 33°42' E 132°23'1513.9
2014-Jul-24 18:26N 33°53' E 132°35'12 0.5
2014-Jul-23 19:32N 34°01' E 132°46'  
2014-Jul-16 23:29N 34°51' E 139°15'1212.6
2014-Jul-16 22:33N 34°58' E 139°26'1313.2
2014-Jul-16 21:33N 35°06' E 139°39'1211.8
2014-Jul-16 20:33N 35°17' E 139°45'1110.8
2014-Jul-16 19:33N 35°27' E 139°47'1413.8
2014-Jul-16 18:33N 35°35' E 140°02'4 3.8
2014-Jul-16 17:25N 35°34' E 140°07'0 0.0
2014-Jul-16 16:31N 35°34' E 140°07'0 0.0
2014-Jul-16 15:31N 35°34' E 140°07'0 0.0
2014-Jul-16 14:25N 35°34' E 140°07'0 0.0
2014-Jul-16 13:28N 35°34' E 140°07'0 0.0
2014-Jul-16 12:28N 35°34' E 140°07'0 0.0
2014-Jul-16 11:28N 35°34' E 140°07'0 0.0
2014-Jul-16 10:31N 35°34' E 140°07'0 0.0
2014-Jul-16 09:22N 35°34' E 140°07'0 0.0
2014-Jul-16 08:28N 35°34' E 140°07'0 0.0
2014-Jul-16 07:28N 35°34' E 140°07'0 0.0
2014-Jul-16 06:25N 35°34' E 140°07'0 0.0
2014-Jul-16 05:28N 35°34' E 140°07'0 0.0
2014-Jul-16 04:28N 35°34' E 140°07'0 0.0
2014-Jul-16 03:31N 35°34' E 140°07'0 0.0
2014-Jul-16 02:16N 35°34' E 140°07'0 0.0
2014-Jul-16 01:32N 35°34' E 140°07'4 4.3
2014-Jul-16 00:33N 35°34' E 140°02'2 2.0
2014-Jul-15 23:33N 35°34' E 139°59'6 5.6
2014-Jul-15 22:33N 35°30' E 139°54'1211.9
2014-Jul-15 21:33N 35°21' E 139°45'1111.5
2014-Jul-15 20:33N 35°10' E 139°47'1211.7
2014-Jul-15 19:33N 35°01' E 139°38'1313.1
2014-Jul-15 18:33N 34°53' E 139°25'  

Dump ship's entire track history